sensor_id;sensor_type;location;lat;lon;timestamp;P1;durP1;ratioP1;P2;durP2;ratioP2
3261;SDS011;1643;47.746;9.000;2024-03-23T00:54:10;2.03;;;1.93;;
3261;SDS011;1643;47.746;9.000;2024-03-23T00:56:35;2.10;;;1.87;;
3261;SDS011;1643;47.746;9.000;2024-03-23T00:59:01;2.47;;;2.00;;
3261;SDS011;1643;47.746;9.000;2024-03-23T01:01:26;2.80;;;2.03;;
3261;SDS011;1643;47.746;9.000;2024-03-23T01:03:52;2.33;;;2.00;;
3261;SDS011;1643;47.746;9.000;2024-03-23T01:06:18;2.10;;;1.90;;
3261;SDS011;1643;47.746;9.000;2024-03-23T01:08:43;2.70;;;2.50;;
3261;SDS011;1643;47.746;9.000;2024-03-23T01:11:09;2.03;;;1.83;;
3261;SDS011;1643;47.746;9.000;2024-03-23T01:13:35;2.00;;;1.90;;
3261;SDS011;1643;47.746;9.000;2024-03-23T01:16:00;3.00;;;2.53;;
3261;SDS011;1643;47.746;9.000;2024-03-23T01:18:26;4.30;;;2.40;;
3261;SDS011;1643;47.746;9.000;2024-03-23T01:20:52;2.93;;;2.40;;
3261;SDS011;1643;47.746;9.000;2024-03-23T01:23:17;2.80;;;2.17;;
3261;SDS011;1643;47.746;9.000;2024-03-23T01:25:43;2.57;;;2.37;;
3261;SDS011;1643;47.746;9.000;2024-03-23T01:28:16;2.50;;;2.30;;
3261;SDS011;1643;47.746;9.000;2024-03-23T01:30:42;2.27;;;2.07;;
3261;SDS011;1643;47.746;9.000;2024-03-23T01:33:07;3.20;;;2.40;;
3261;SDS011;1643;47.746;9.000;2024-03-23T01:35:33;2.90;;;2.17;;
3261;SDS011;1643;47.746;9.000;2024-03-23T01:37:58;2.57;;;2.30;;
3261;SDS011;1643;47.746;9.000;2024-03-23T01:40:24;2.60;;;2.40;;
3261;SDS011;1643;47.746;9.000;2024-03-23T01:42:55;2.23;;;2.10;;
3261;SDS011;1643;47.746;9.000;2024-03-23T01:45:28;5.20;;;2.20;;
3261;SDS011;1643;47.746;9.000;2024-03-23T01:47:55;2.40;;;2.20;;
3261;SDS011;1643;47.746;9.000;2024-03-23T01:50:20;2.93;;;2.07;;
3261;SDS011;1643;47.746;9.000;2024-03-23T01:52:47;4.40;;;2.30;;
3261;SDS011;1643;47.746;9.000;2024-03-23T01:55:13;2.53;;;2.33;;
3261;SDS011;1643;47.746;9.000;2024-03-23T01:57:38;2.10;;;1.90;;
3261;SDS011;1643;47.746;9.000;2024-03-23T02:00:04;2.77;;;2.20;;
3261;SDS011;1643;47.746;9.000;2024-03-23T02:02:31;2.63;;;2.43;;
3261;SDS011;1643;47.746;9.000;2024-03-23T02:04:57;2.10;;;2.00;;
3261;SDS011;1643;47.746;9.000;2024-03-23T02:07:22;2.30;;;2.10;;
3261;SDS011;1643;47.746;9.000;2024-03-23T02:09:50;1.90;;;1.80;;
3261;SDS011;1643;47.746;9.000;2024-03-23T02:12:16;3.50;;;2.20;;
3261;SDS011;1643;47.746;9.000;2024-03-23T02:14:42;3.77;;;2.67;;
3261;SDS011;1643;47.746;9.000;2024-03-23T02:17:08;1.90;;;1.80;;
3261;SDS011;1643;47.746;9.000;2024-03-23T02:19:34;2.60;;;2.40;;
3261;SDS011;1643;47.746;9.000;2024-03-23T02:22:00;2.20;;;2.00;;
3261;SDS011;1643;47.746;9.000;2024-03-23T02:24:26;3.90;;;2.63;;
3261;SDS011;1643;47.746;9.000;2024-03-23T02:26:51;2.80;;;2.00;;
3261;SDS011;1643;47.746;9.000;2024-03-23T02:29:17;2.57;;;2.37;;
3261;SDS011;1643;47.746;9.000;2024-03-23T02:31:44;4.40;;;2.23;;
3261;SDS011;1643;47.746;9.000;2024-03-23T02:34:10;2.87;;;2.17;;
3261;SDS011;1643;47.746;9.000;2024-03-23T02:36:36;2.90;;;2.13;;
3261;SDS011;1643;47.746;9.000;2024-03-23T02:39:01;3.03;;;2.40;;
3261;SDS011;1643;47.746;9.000;2024-03-23T02:41:27;2.30;;;2.10;;
3261;SDS011;1643;47.746;9.000;2024-03-23T02:43:52;2.80;;;2.30;;
3261;SDS011;1643;47.746;9.000;2024-03-23T02:46:18;3.00;;;1.90;;
3261;SDS011;1643;47.746;9.000;2024-03-23T02:48:43;2.43;;;1.93;;
3261;SDS011;1643;47.746;9.000;2024-03-23T02:51:09;2.47;;;2.27;;
3261;SDS011;1643;47.746;9.000;2024-03-23T02:53:35;2.73;;;2.30;;
3261;SDS011;1643;47.746;9.000;2024-03-23T02:56:01;3.93;;;2.40;;
3261;SDS011;1643;47.746;9.000;2024-03-23T02:58:26;3.00;;;2.27;;
3261;SDS011;1643;47.746;9.000;2024-03-23T03:00:52;2.80;;;2.60;;
3261;SDS011;1643;47.746;9.000;2024-03-23T03:03:18;4.20;;;2.47;;
3261;SDS011;1643;47.746;9.000;2024-03-23T03:05:43;2.97;;;2.70;;
3261;SDS011;1643;47.746;9.000;2024-03-23T03:08:09;2.53;;;1.93;;
3261;SDS011;1643;47.746;9.000;2024-03-23T03:10:35;2.43;;;2.23;;
3261;SDS011;1643;47.746;9.000;2024-03-23T03:13:01;2.70;;;2.30;;
3261;SDS011;1643;47.746;9.000;2024-03-23T03:15:27;3.90;;;2.60;;
3261;SDS011;1643;47.746;9.000;2024-03-23T03:17:53;2.40;;;2.20;;
3261;SDS011;1643;47.746;9.000;2024-03-23T03:20:19;2.23;;;2.07;;
3261;SDS011;1643;47.746;9.000;2024-03-23T03:22:47;2.73;;;2.10;;
3261;SDS011;1643;47.746;9.000;2024-03-23T03:25:12;3.23;;;2.53;;
3261;SDS011;1643;47.746;9.000;2024-03-23T03:27:38;2.60;;;2.27;;
3261;SDS011;1643;47.746;9.000;2024-03-23T03:30:04;2.57;;;2.07;;
3261;SDS011;1643;47.746;9.000;2024-03-23T03:32:32;2.60;;;2.10;;
3261;SDS011;1643;47.746;9.000;2024-03-23T03:34:58;2.50;;;2.20;;
3261;SDS011;1643;47.746;9.000;2024-03-23T03:37:23;2.33;;;2.13;;
3261;SDS011;1643;47.746;9.000;2024-03-23T03:39:49;2.50;;;2.20;;
3261;SDS011;1643;47.746;9.000;2024-03-23T03:42:15;3.87;;;2.50;;
3261;SDS011;1643;47.746;9.000;2024-03-23T03:44:40;5.10;;;2.40;;
3261;SDS011;1643;47.746;9.000;2024-03-23T03:47:06;5.87;;;2.33;;
3261;SDS011;1643;47.746;9.000;2024-03-23T03:49:32;3.20;;;2.60;;
3261;SDS011;1643;47.746;9.000;2024-03-23T03:51:58;3.00;;;2.70;;
3261;SDS011;1643;47.746;9.000;2024-03-23T03:54:23;3.77;;;2.93;;
3261;SDS011;1643;47.746;9.000;2024-03-23T03:56:49;3.80;;;3.03;;
3261;SDS011;1643;47.746;9.000;2024-03-23T03:59:15;3.90;;;2.93;;
3261;SDS011;1643;47.746;9.000;2024-03-23T04:01:40;4.67;;;2.97;;
3261;SDS011;1643;47.746;9.000;2024-03-23T04:04:06;2.97;;;2.67;;
3261;SDS011;1643;47.746;9.000;2024-03-23T04:06:32;3.70;;;2.90;;
3261;SDS011;1643;47.746;9.000;2024-03-23T04:08:58;3.47;;;2.80;;
3261;SDS011;1643;47.746;9.000;2024-03-23T04:11:24;3.90;;;2.27;;
3261;SDS011;1643;47.746;9.000;2024-03-23T04:13:49;3.23;;;2.97;;
3261;SDS011;1643;47.746;9.000;2024-03-23T04:16:27;3.30;;;2.67;;
3261;SDS011;1643;47.746;9.000;2024-03-23T04:18:53;2.67;;;2.47;;
3261;SDS011;1643;47.746;9.000;2024-03-23T04:21:19;3.93;;;2.73;;
3261;SDS011;1643;47.746;9.000;2024-03-23T04:23:45;2.40;;;2.20;;
3261;SDS011;1643;47.746;9.000;2024-03-23T04:26:11;3.80;;;2.27;;
3261;SDS011;1643;47.746;9.000;2024-03-23T04:28:36;3.10;;;2.80;;
3261;SDS011;1643;47.746;9.000;2024-03-23T04:31:05;4.23;;;3.00;;
3261;SDS011;1643;47.746;9.000;2024-03-23T04:33:31;4.03;;;3.00;;
3261;SDS011;1643;47.746;9.000;2024-03-23T04:35:56;6.73;;;3.03;;
3261;SDS011;1643;47.746;9.000;2024-03-23T04:38:22;3.37;;;3.00;;
3261;SDS011;1643;47.746;9.000;2024-03-23T04:40:57;4.40;;;2.60;;
3261;SDS011;1643;47.746;9.000;2024-03-23T04:43:24;2.67;;;2.47;;
3261;SDS011;1643;47.746;9.000;2024-03-23T04:45:50;3.33;;;2.50;;
3261;SDS011;1643;47.746;9.000;2024-03-23T04:48:16;3.30;;;3.00;;
3261;SDS011;1643;47.746;9.000;2024-03-23T04:50:44;4.90;;;2.70;;
3261;SDS011;1643;47.746;9.000;2024-03-23T04:53:10;6.63;;;3.23;;
3261;SDS011;1643;47.746;9.000;2024-03-23T04:55:35;4.70;;;3.33;;
3261;SDS011;1643;47.746;9.000;2024-03-23T04:58:01;4.07;;;3.20;;
3261;SDS011;1643;47.746;9.000;2024-03-23T05:00:26;4.70;;;2.53;;
3261;SDS011;1643;47.746;9.000;2024-03-23T05:02:52;6.33;;;3.10;;
3261;SDS011;1643;47.746;9.000;2024-03-23T05:05:18;3.83;;;2.90;;
3261;SDS011;1643;47.746;9.000;2024-03-23T05:07:43;3.80;;;2.73;;
3261;SDS011;1643;47.746;9.000;2024-03-23T05:10:09;3.10;;;2.63;;
3261;SDS011;1643;47.746;9.000;2024-03-23T05:12:36;2.90;;;2.70;;
3261;SDS011;1643;47.746;9.000;2024-03-23T05:15:04;3.07;;;2.77;;
3261;SDS011;1643;47.746;9.000;2024-03-23T05:17:30;3.50;;;2.87;;
3261;SDS011;1643;47.746;9.000;2024-03-23T05:19:59;2.57;;;2.37;;
3261;SDS011;1643;47.746;9.000;2024-03-23T05:22:25;3.93;;;2.80;;
3261;SDS011;1643;47.746;9.000;2024-03-23T05:24:52;2.60;;;2.40;;
3261;SDS011;1643;47.746;9.000;2024-03-23T05:27:18;2.57;;;2.23;;
3261;SDS011;1643;47.746;9.000;2024-03-23T05:29:44;4.00;;;2.70;;
3261;SDS011;1643;47.746;9.000;2024-03-23T05:32:09;3.80;;;2.87;;
3261;SDS011;1643;47.746;9.000;2024-03-23T05:34:35;4.27;;;2.80;;
3261;SDS011;1643;47.746;9.000;2024-03-23T05:37:01;3.73;;;3.23;;
3261;SDS011;1643;47.746;9.000;2024-03-23T05:39:26;5.77;;;3.50;;
3261;SDS011;1643;47.746;9.000;2024-03-23T05:41:52;6.13;;;5.17;;
3261;SDS011;1643;47.746;9.000;2024-03-23T05:44:18;7.07;;;4.77;;
3261;SDS011;1643;47.746;9.000;2024-03-23T05:46:43;7.77;;;5.30;;
3261;SDS011;1643;47.746;9.000;2024-03-23T05:49:13;7.33;;;5.13;;
3261;SDS011;1643;47.746;9.000;2024-03-23T05:51:40;6.20;;;5.23;;
3261;SDS011;1643;47.746;9.000;2024-03-23T05:54:06;6.10;;;4.30;;
3261;SDS011;1643;47.746;9.000;2024-03-23T05:56:32;10.30;;;4.57;;
3261;SDS011;1643;47.746;9.000;2024-03-23T05:58:57;9.27;;;3.77;;
3261;SDS011;1643;47.746;9.000;2024-03-23T06:01:23;4.00;;;3.63;;
3261;SDS011;1643;47.746;9.000;2024-03-23T06:03:48;3.10;;;2.80;;
3261;SDS011;1643;47.746;9.000;2024-03-23T06:06:14;11.20;;;3.87;;
3261;SDS011;1643;47.746;9.000;2024-03-23T06:08:40;3.70;;;2.83;;
3261;SDS011;1643;47.746;9.000;2024-03-23T06:11:06;4.13;;;3.73;;
3261;SDS011;1643;47.746;9.000;2024-03-23T06:13:32;8.70;;;3.50;;
3261;SDS011;1643;47.746;9.000;2024-03-23T06:15:58;6.67;;;3.63;;
3261;SDS011;1643;47.746;9.000;2024-03-23T06:18:24;4.60;;;2.50;;
3261;SDS011;1643;47.746;9.000;2024-03-23T06:20:51;4.60;;;3.20;;
3261;SDS011;1643;47.746;9.000;2024-03-23T06:23:16;3.60;;;3.30;;
3261;SDS011;1643;47.746;9.000;2024-03-23T06:25:44;9.10;;;3.00;;
3261;SDS011;1643;47.746;9.000;2024-03-23T06:28:10;4.13;;;3.37;;
3261;SDS011;1643;47.746;9.000;2024-03-23T06:30:36;5.77;;;3.17;;
3261;SDS011;1643;47.746;9.000;2024-03-23T06:33:02;4.13;;;2.50;;
3261;SDS011;1643;47.746;9.000;2024-03-23T06:35:27;3.60;;;3.30;;
3261;SDS011;1643;47.746;9.000;2024-03-23T06:37:53;3.80;;;3.10;;
3261;SDS011;1643;47.746;9.000;2024-03-23T06:40:18;4.17;;;3.20;;
3261;SDS011;1643;47.746;9.000;2024-03-23T06:42:44;3.80;;;3.30;;
3261;SDS011;1643;47.746;9.000;2024-03-23T06:45:10;5.53;;;3.40;;
3261;SDS011;1643;47.746;9.000;2024-03-23T06:47:35;4.20;;;3.60;;
3261;SDS011;1643;47.746;9.000;2024-03-23T06:50:02;3.60;;;3.27;;
3261;SDS011;1643;47.746;9.000;2024-03-23T06:52:28;3.70;;;2.87;;
3261;SDS011;1643;47.746;9.000;2024-03-23T06:54:54;3.70;;;3.20;;
3261;SDS011;1643;47.746;9.000;2024-03-23T06:57:20;3.23;;;2.70;;
3261;SDS011;1643;47.746;9.000;2024-03-23T06:59:46;5.50;;;3.40;;
3261;SDS011;1643;47.746;9.000;2024-03-23T07:02:12;4.80;;;3.00;;
3261;SDS011;1643;47.746;9.000;2024-03-23T07:04:37;3.80;;;3.30;;
3261;SDS011;1643;47.746;9.000;2024-03-23T07:07:04;7.03;;;3.50;;
3261;SDS011;1643;47.746;9.000;2024-03-23T07:09:30;4.73;;;3.10;;
3261;SDS011;1643;47.746;9.000;2024-03-23T07:11:56;3.17;;;2.87;;
3261;SDS011;1643;47.746;9.000;2024-03-23T07:14:22;4.00;;;2.60;;
3261;SDS011;1643;47.746;9.000;2024-03-23T07:16:48;4.07;;;2.50;;
3261;SDS011;1643;47.746;9.000;2024-03-23T07:19:17;3.87;;;2.67;;
3261;SDS011;1643;47.746;9.000;2024-03-23T07:21:43;4.07;;;3.20;;
3261;SDS011;1643;47.746;9.000;2024-03-23T07:24:09;5.17;;;2.73;;
3261;SDS011;1643;47.746;9.000;2024-03-23T07:26:36;2.97;;;2.67;;
3261;SDS011;1643;47.746;9.000;2024-03-23T07:29:03;3.83;;;2.90;;
3261;SDS011;1643;47.746;9.000;2024-03-23T07:31:29;5.10;;;3.70;;
3261;SDS011;1643;47.746;9.000;2024-03-23T07:33:54;6.10;;;3.77;;
3261;SDS011;1643;47.746;9.000;2024-03-23T07:36:20;4.33;;;3.90;;
3261;SDS011;1643;47.746;9.000;2024-03-23T07:38:45;3.90;;;2.93;;
3261;SDS011;1643;47.746;9.000;2024-03-23T07:41:13;4.17;;;2.90;;
3261;SDS011;1643;47.746;9.000;2024-03-23T07:43:42;4.23;;;3.67;;
3261;SDS011;1643;47.746;9.000;2024-03-23T07:46:08;4.47;;;3.67;;
3261;SDS011;1643;47.746;9.000;2024-03-23T07:48:33;4.00;;;3.47;;
3261;SDS011;1643;47.746;9.000;2024-03-23T07:51:03;5.40;;;3.57;;
3261;SDS011;1643;47.746;9.000;2024-03-23T07:53:34;4.53;;;3.40;;
3261;SDS011;1643;47.746;9.000;2024-03-23T07:56:01;6.40;;;4.60;;
3261;SDS011;1643;47.746;9.000;2024-03-23T07:58:31;4.77;;;4.00;;
3261;SDS011;1643;47.746;9.000;2024-03-23T08:01:03;5.93;;;3.50;;
3261;SDS011;1643;47.746;9.000;2024-03-23T08:03:30;2.30;;;2.10;;
3261;SDS011;1643;47.746;9.000;2024-03-23T08:05:56;1.70;;;1.27;;
3261;SDS011;1643;47.746;9.000;2024-03-23T08:08:22;1.33;;;1.07;;
3261;SDS011;1643;47.746;9.000;2024-03-23T08:10:51;0.90;;;0.90;;
3261;SDS011;1643;47.746;9.000;2024-03-23T08:13:17;1.17;;;1.00;;
3261;SDS011;1643;47.746;9.000;2024-03-23T08:15:44;0.77;;;0.70;;
3261;SDS011;1643;47.746;9.000;2024-03-23T08:18:12;0.93;;;0.93;;
3261;SDS011;1643;47.746;9.000;2024-03-23T08:20:38;0.73;;;0.73;;
3261;SDS011;1643;47.746;9.000;2024-03-23T08:23:07;1.27;;;0.70;;
3261;SDS011;1643;47.746;9.000;2024-03-23T08:25:33;0.80;;;0.80;;
3261;SDS011;1643;47.746;9.000;2024-03-23T08:27:59;0.70;;;0.70;;
3261;SDS011;1643;47.746;9.000;2024-03-23T08:30:25;7.90;;;0.80;;
3261;SDS011;1643;47.746;9.000;2024-03-23T08:32:51;0.80;;;0.70;;
3261;SDS011;1643;47.746;9.000;2024-03-23T08:35:17;0.80;;;0.80;;
3261;SDS011;1643;47.746;9.000;2024-03-23T08:37:43;1.33;;;0.80;;
3261;SDS011;1643;47.746;9.000;2024-03-23T08:40:08;0.90;;;0.70;;
3261;SDS011;1643;47.746;9.000;2024-03-23T08:42:34;0.70;;;0.70;;
3261;SDS011;1643;47.746;9.000;2024-03-23T08:45:00;0.70;;;0.70;;
3261;SDS011;1643;47.746;9.000;2024-03-23T08:47:26;0.80;;;0.80;;
3261;SDS011;1643;47.746;9.000;2024-03-23T08:49:51;0.60;;;0.60;;
3261;SDS011;1643;47.746;9.000;2024-03-23T08:52:17;0.73;;;0.73;;
3261;SDS011;1643;47.746;9.000;2024-03-23T08:54:43;0.83;;;0.67;;
3261;SDS011;1643;47.746;9.000;2024-03-23T08:57:08;0.70;;;0.70;;
3261;SDS011;1643;47.746;9.000;2024-03-23T08:59:34;0.80;;;0.80;;
3261;SDS011;1643;47.746;9.000;2024-03-23T09:02:00;0.70;;;0.60;;
3261;SDS011;1643;47.746;9.000;2024-03-23T09:04:26;0.80;;;0.60;;
3261;SDS011;1643;47.746;9.000;2024-03-23T09:06:51;0.70;;;0.70;;
3261;SDS011;1643;47.746;9.000;2024-03-23T09:09:17;1.77;;;0.70;;
3261;SDS011;1643;47.746;9.000;2024-03-23T09:11:45;0.90;;;0.90;;
3261;SDS011;1643;47.746;9.000;2024-03-23T09:14:10;0.60;;;0.60;;
3261;SDS011;1643;47.746;9.000;2024-03-23T09:16:36;0.80;;;0.70;;
3261;SDS011;1643;47.746;9.000;2024-03-23T09:19:02;0.70;;;0.70;;
3261;SDS011;1643;47.746;9.000;2024-03-23T09:21:28;2.00;;;0.80;;
3261;SDS011;1643;47.746;9.000;2024-03-23T09:23:53;0.60;;;0.60;;
3261;SDS011;1643;47.746;9.000;2024-03-23T09:26:19;2.63;;;0.90;;
3261;SDS011;1643;47.746;9.000;2024-03-23T09:28:45;1.30;;;0.80;;
3261;SDS011;1643;47.746;9.000;2024-03-23T09:31:13;2.70;;;0.80;;
3261;SDS011;1643;47.746;9.000;2024-03-23T09:33:40;0.80;;;0.80;;
3261;SDS011;1643;47.746;9.000;2024-03-23T09:36:06;2.63;;;1.10;;
3261;SDS011;1643;47.746;9.000;2024-03-23T09:38:33;3.60;;;1.20;;
3261;SDS011;1643;47.746;9.000;2024-03-23T09:40:59;0.73;;;0.73;;
3261;SDS011;1643;47.746;9.000;2024-03-23T09:43:25;1.07;;;0.97;;
3261;SDS011;1643;47.746;9.000;2024-03-23T09:45:51;1.67;;;0.90;;
3261;SDS011;1643;47.746;9.000;2024-03-23T09:48:17;0.70;;;0.70;;
3261;SDS011;1643;47.746;9.000;2024-03-23T09:50:44;1.80;;;0.80;;
3261;SDS011;1643;47.746;9.000;2024-03-23T09:53:11;1.60;;;1.10;;
3261;SDS011;1643;47.746;9.000;2024-03-23T09:55:38;1.57;;;0.90;;
3261;SDS011;1643;47.746;9.000;2024-03-23T09:58:05;1.00;;;0.70;;
3261;SDS011;1643;47.746;9.000;2024-03-23T10:00:31;1.03;;;0.93;;
3261;SDS011;1643;47.746;9.000;2024-03-23T10:02:58;0.80;;;0.70;;
3261;SDS011;1643;47.746;9.000;2024-03-23T10:05:26;0.93;;;0.80;;
3261;SDS011;1643;47.746;9.000;2024-03-23T10:07:53;1.10;;;0.90;;
3261;SDS011;1643;47.746;9.000;2024-03-23T10:10:19;1.43;;;1.10;;
3261;SDS011;1643;47.746;9.000;2024-03-23T10:12:50;1.33;;;1.13;;
3261;SDS011;1643;47.746;9.000;2024-03-23T10:15:19;1.43;;;1.30;;
3261;SDS011;1643;47.746;9.000;2024-03-23T10:17:51;1.33;;;1.20;;
3261;SDS011;1643;47.746;9.000;2024-03-23T10:20:21;2.70;;;1.10;;
3261;SDS011;1643;47.746;9.000;2024-03-23T10:22:48;4.77;;;1.33;;
3261;SDS011;1643;47.746;9.000;2024-03-23T10:25:14;5.50;;;1.70;;
3261;SDS011;1643;47.746;9.000;2024-03-23T10:27:40;1.20;;;1.10;;
3261;SDS011;1643;47.746;9.000;2024-03-23T10:30:12;3.37;;;1.47;;
3261;SDS011;1643;47.746;9.000;2024-03-23T10:32:39;1.50;;;1.40;;
3261;SDS011;1643;47.746;9.000;2024-03-23T10:35:18;3.73;;;1.57;;
3261;SDS011;1643;47.746;9.000;2024-03-23T10:37:47;3.03;;;1.10;;
3261;SDS011;1643;47.746;9.000;2024-03-23T10:40:16;2.00;;;1.40;;
3261;SDS011;1643;47.746;9.000;2024-03-23T10:42:43;3.63;;;1.20;;
3261;SDS011;1643;47.746;9.000;2024-03-23T10:45:09;2.50;;;1.10;;
3261;SDS011;1643;47.746;9.000;2024-03-23T10:47:36;2.70;;;1.40;;
3261;SDS011;1643;47.746;9.000;2024-03-23T10:50:05;3.47;;;1.67;;
3261;SDS011;1643;47.746;9.000;2024-03-23T10:52:34;2.13;;;1.10;;
3261;SDS011;1643;47.746;9.000;2024-03-23T10:55:01;5.87;;;1.27;;
3261;SDS011;1643;47.746;9.000;2024-03-23T10:57:31;2.07;;;1.60;;
3261;SDS011;1643;47.746;9.000;2024-03-23T11:00:04;3.33;;;1.37;;
3261;SDS011;1643;47.746;9.000;2024-03-23T11:02:30;3.23;;;1.60;;
3261;SDS011;1643;47.746;9.000;2024-03-23T11:04:56;1.80;;;1.30;;
3261;SDS011;1643;47.746;9.000;2024-03-23T11:09:54;1.80;;;1.33;;
3261;SDS011;1643;47.746;9.000;2024-03-23T11:14:48;7.60;;;1.57;;
3261;SDS011;1643;47.746;9.000;2024-03-23T11:17:19;4.73;;;1.60;;
3261;SDS011;1643;47.746;9.000;2024-03-23T11:19:52;5.00;;;1.23;;
3261;SDS011;1643;47.746;9.000;2024-03-23T11:25:11;3.80;;;1.43;;
3261;SDS011;1643;47.746;9.000;2024-03-23T11:27:38;3.17;;;1.80;;
3261;SDS011;1643;47.746;9.000;2024-03-23T11:32:58;3.53;;;1.50;;
3261;SDS011;1643;47.746;9.000;2024-03-23T11:35:30;4.40;;;1.53;;
3261;SDS011;1643;47.746;9.000;2024-03-23T11:40:40;8.03;;;2.50;;
3261;SDS011;1643;47.746;9.000;2024-03-23T11:43:14;1.63;;;1.50;;
3261;SDS011;1643;47.746;9.000;2024-03-23T11:48:17;5.93;;;2.00;;
3261;SDS011;1643;47.746;9.000;2024-03-23T11:50:48;4.67;;;1.83;;
3261;SDS011;1643;47.746;9.000;2024-03-23T11:55:48;3.83;;;1.70;;
3261;SDS011;1643;47.746;9.000;2024-03-23T11:58:14;5.70;;;2.00;;
3261;SDS011;1643;47.746;9.000;2024-03-23T12:00:42;3.33;;;1.60;;
3261;SDS011;1643;47.746;9.000;2024-03-23T12:03:15;4.70;;;1.67;;
3261;SDS011;1643;47.746;9.000;2024-03-23T12:05:46;3.23;;;1.90;;
3261;SDS011;1643;47.746;9.000;2024-03-23T12:08:28;6.87;;;2.13;;
3261;SDS011;1643;47.746;9.000;2024-03-23T12:11:05;9.30;;;2.57;;
3261;SDS011;1643;47.746;9.000;2024-03-23T12:13:37;6.80;;;1.57;;
3261;SDS011;1643;47.746;9.000;2024-03-23T12:16:10;10.53;;;1.90;;
3261;SDS011;1643;47.746;9.000;2024-03-23T12:18:36;9.90;;;2.50;;
3261;SDS011;1643;47.746;9.000;2024-03-23T12:21:02;2.03;;;1.70;;
3261;SDS011;1643;47.746;9.000;2024-03-23T12:23:28;4.27;;;1.83;;
3261;SDS011;1643;47.746;9.000;2024-03-23T12:25:53;7.70;;;1.93;;
3261;SDS011;1643;47.746;9.000;2024-03-23T12:28:19;3.67;;;1.77;;
3261;SDS011;1643;47.746;9.000;2024-03-23T12:30:45;6.30;;;1.70;;
3261;SDS011;1643;47.746;9.000;2024-03-23T12:33:10;8.23;;;1.40;;
3261;SDS011;1643;47.746;9.000;2024-03-23T12:35:37;4.20;;;1.77;;
3261;SDS011;1643;47.746;9.000;2024-03-23T12:38:02;8.23;;;2.47;;
3261;SDS011;1643;47.746;9.000;2024-03-23T12:40:28;4.17;;;1.73;;
3261;SDS011;1643;47.746;9.000;2024-03-23T12:42:54;2.77;;;1.63;;
3261;SDS011;1643;47.746;9.000;2024-03-23T12:45:21;3.13;;;1.47;;
3261;SDS011;1643;47.746;9.000;2024-03-23T12:47:47;3.13;;;1.17;;
3261;SDS011;1643;47.746;9.000;2024-03-23T12:50:12;3.27;;;1.20;;
3261;SDS011;1643;47.746;9.000;2024-03-23T12:52:38;2.70;;;0.90;;
3261;SDS011;1643;47.746;9.000;2024-03-23T12:55:04;2.97;;;1.13;;
3261;SDS011;1643;47.746;9.000;2024-03-23T12:57:31;0.80;;;0.70;;
3261;SDS011;1643;47.746;9.000;2024-03-23T12:59:57;1.43;;;0.83;;
3261;SDS011;1643;47.746;9.000;2024-03-23T13:02:23;2.97;;;1.00;;
3261;SDS011;1643;47.746;9.000;2024-03-23T13:04:54;0.70;;;0.70;;
3261;SDS011;1643;47.746;9.000;2024-03-23T13:07:21;1.93;;;1.00;;
3261;SDS011;1643;47.746;9.000;2024-03-23T13:09:51;0.80;;;0.80;;
3261;SDS011;1643;47.746;9.000;2024-03-23T13:12:18;2.30;;;1.00;;
3261;SDS011;1643;47.746;9.000;2024-03-23T13:14:45;1.13;;;0.90;;
3261;SDS011;1643;47.746;9.000;2024-03-23T13:17:11;1.90;;;1.10;;
3261;SDS011;1643;47.746;9.000;2024-03-23T13:19:37;2.00;;;1.00;;
3261;SDS011;1643;47.746;9.000;2024-03-23T13:22:02;2.10;;;1.00;;
3261;SDS011;1643;47.746;9.000;2024-03-23T13:24:29;2.20;;;1.20;;
3261;SDS011;1643;47.746;9.000;2024-03-23T13:26:55;2.10;;;1.20;;
3261;SDS011;1643;47.746;9.000;2024-03-23T13:29:22;2.43;;;1.17;;
3261;SDS011;1643;47.746;9.000;2024-03-23T13:31:49;4.73;;;1.80;;
3261;SDS011;1643;47.746;9.000;2024-03-23T13:34:16;5.27;;;1.80;;
3261;SDS011;1643;47.746;9.000;2024-03-23T13:36:42;2.60;;;1.23;;
3261;SDS011;1643;47.746;9.000;2024-03-23T13:39:08;3.00;;;1.60;;
3261;SDS011;1643;47.746;9.000;2024-03-23T13:44:11;2.37;;;1.47;;
3261;SDS011;1643;47.746;9.000;2024-03-23T13:46:37;3.60;;;1.30;;
3261;SDS011;1643;47.746;9.000;2024-03-23T13:49:04;3.67;;;1.50;;
3261;SDS011;1643;47.746;9.000;2024-03-23T13:51:30;2.77;;;1.77;;
3261;SDS011;1643;47.746;9.000;2024-03-23T13:53:56;3.43;;;1.30;;
3261;SDS011;1643;47.746;9.000;2024-03-23T13:56:25;5.23;;;1.83;;
3261;SDS011;1643;47.746;9.000;2024-03-23T13:58:50;3.47;;;1.40;;
3261;SDS011;1643;47.746;9.000;2024-03-23T14:01:16;9.03;;;2.00;;
3261;SDS011;1643;47.746;9.000;2024-03-23T14:03:42;4.10;;;1.50;;
3261;SDS011;1643;47.746;9.000;2024-03-23T14:06:09;5.13;;;1.70;;
3261;SDS011;1643;47.746;9.000;2024-03-23T14:08:35;6.23;;;2.23;;
3261;SDS011;1643;47.746;9.000;2024-03-23T14:11:04;6.00;;;1.50;;
3261;SDS011;1643;47.746;9.000;2024-03-23T14:13:30;2.90;;;1.40;;
3261;SDS011;1643;47.746;9.000;2024-03-23T14:15:56;3.80;;;1.97;;
3261;SDS011;1643;47.746;9.000;2024-03-23T14:18:22;3.00;;;1.43;;
3261;SDS011;1643;47.746;9.000;2024-03-23T14:20:49;4.10;;;1.33;;
3261;SDS011;1643;47.746;9.000;2024-03-23T14:23:15;6.10;;;1.73;;
3261;SDS011;1643;47.746;9.000;2024-03-23T14:25:41;3.70;;;1.63;;
3261;SDS011;1643;47.746;9.000;2024-03-23T14:28:07;7.67;;;2.77;;
3261;SDS011;1643;47.746;9.000;2024-03-23T14:30:38;4.20;;;1.47;;
3261;SDS011;1643;47.746;9.000;2024-03-23T14:33:05;3.33;;;1.80;;
3261;SDS011;1643;47.746;9.000;2024-03-23T14:35:31;5.30;;;2.00;;
3261;SDS011;1643;47.746;9.000;2024-03-23T14:37:58;2.77;;;1.63;;
3261;SDS011;1643;47.746;9.000;2024-03-23T14:40:23;3.80;;;1.60;;
3261;SDS011;1643;47.746;9.000;2024-03-23T14:42:52;3.70;;;1.80;;
3261;SDS011;1643;47.746;9.000;2024-03-23T14:45:21;4.73;;;1.60;;
3261;SDS011;1643;47.746;9.000;2024-03-23T14:47:48;5.33;;;1.60;;
3261;SDS011;1643;47.746;9.000;2024-03-23T14:50:14;3.17;;;1.77;;
3261;SDS011;1643;47.746;9.000;2024-03-23T14:52:42;4.60;;;1.80;;
3261;SDS011;1643;47.746;9.000;2024-03-23T14:55:11;5.67;;;1.70;;
3261;SDS011;1643;47.746;9.000;2024-03-23T14:57:37;3.40;;;1.93;;
3261;SDS011;1643;47.746;9.000;2024-03-23T15:00:09;2.40;;;1.57;;
3261;SDS011;1643;47.746;9.000;2024-03-23T15:02:38;3.87;;;1.40;;
3261;SDS011;1643;47.746;9.000;2024-03-23T15:05:04;3.33;;;1.27;;
3261;SDS011;1643;47.746;9.000;2024-03-23T15:07:34;2.87;;;1.23;;
3261;SDS011;1643;47.746;9.000;2024-03-23T15:10:04;4.27;;;1.43;;
3261;SDS011;1643;47.746;9.000;2024-03-23T15:12:30;4.20;;;1.60;;
3261;SDS011;1643;47.746;9.000;2024-03-23T15:14:58;4.43;;;1.63;;
3261;SDS011;1643;47.746;9.000;2024-03-23T15:17:25;7.07;;;1.37;;
3261;SDS011;1643;47.746;9.000;2024-03-23T15:19:50;2.77;;;1.80;;
3261;SDS011;1643;47.746;9.000;2024-03-23T15:22:16;2.77;;;1.50;;
3261;SDS011;1643;47.746;9.000;2024-03-23T15:24:42;4.20;;;1.37;;
3261;SDS011;1643;47.746;9.000;2024-03-23T15:27:08;4.23;;;1.47;;
3261;SDS011;1643;47.746;9.000;2024-03-23T15:29:34;2.40;;;1.03;;
3261;SDS011;1643;47.746;9.000;2024-03-23T15:32:01;2.70;;;1.63;;
3261;SDS011;1643;47.746;9.000;2024-03-23T15:34:28;3.40;;;1.47;;
3261;SDS011;1643;47.746;9.000;2024-03-23T15:36:54;5.10;;;1.60;;
3261;SDS011;1643;47.746;9.000;2024-03-23T15:39:20;5.33;;;1.33;;
3261;SDS011;1643;47.746;9.000;2024-03-23T15:41:47;2.33;;;1.10;;
3261;SDS011;1643;47.746;9.000;2024-03-23T15:44:13;1.70;;;1.30;;
3261;SDS011;1643;47.746;9.000;2024-03-23T15:46:39;1.80;;;1.40;;
3261;SDS011;1643;47.746;9.000;2024-03-23T15:49:05;2.43;;;1.37;;
3261;SDS011;1643;47.746;9.000;2024-03-23T15:51:31;2.90;;;1.30;;
3261;SDS011;1643;47.746;9.000;2024-03-23T15:54:02;2.90;;;1.40;;
3261;SDS011;1643;47.746;9.000;2024-03-23T15:56:31;2.43;;;1.30;;
3261;SDS011;1643;47.746;9.000;2024-03-23T15:58:57;5.23;;;1.93;;
3261;SDS011;1643;47.746;9.000;2024-03-23T16:01:30;2.70;;;1.37;;
3261;SDS011;1643;47.746;9.000;2024-03-23T16:03:58;2.20;;;1.10;;
3261;SDS011;1643;47.746;9.000;2024-03-23T16:06:25;3.80;;;1.10;;
3261;SDS011;1643;47.746;9.000;2024-03-23T16:08:51;5.00;;;1.50;;
3261;SDS011;1643;47.746;9.000;2024-03-23T16:11:17;4.43;;;1.00;;
3261;SDS011;1643;47.746;9.000;2024-03-23T16:13:43;2.40;;;1.27;;
3261;SDS011;1643;47.746;9.000;2024-03-23T16:16:09;3.53;;;1.87;;
3261;SDS011;1643;47.746;9.000;2024-03-23T16:18:37;5.80;;;1.47;;
3261;SDS011;1643;47.746;9.000;2024-03-23T16:21:06;1.77;;;1.30;;
3261;SDS011;1643;47.746;9.000;2024-03-23T16:23:33;2.23;;;1.20;;
3261;SDS011;1643;47.746;9.000;2024-03-23T16:25:59;3.23;;;1.33;;